Worland, WY

12:39 PM MST on December 05, 2016 (GMT -0700)
Worland Municipal | | Change Station
Active Advisory: Winter Weather Advisory

Elev 4226 ft 43.97 °N, 107.95 °W | Updated 46 minutes ago

Scattered Clouds
Scattered Clouds
25 °F
Feels Like 11 °F
N
20
Wind Variable Wind from NNW
Gusts 29 mph

Today
High -- | Low -- °F
--% Chance of Precip.
Yesterday
High -- | Low -- °F
Precip. -- in
Pressure 29.97 in
Visibility 10.0 miles
Clouds Scattered Clouds 9000 ft
Windchill 11 °F
Dew Point 13 °F
Humidity 60%
Rainfall 0.02 in
Snow Depth Not available.
7:31 AM 4:34 PM
Waxing Crescent, 34% visible
METAR KWRL 051853Z AUTO 34017G25KT 10SM SCT090 M04/M11 A2985 RMK AO2 SLP147 T10391106
Pressure 29.97 in
Visibility 10.0 miles
Clouds Scattered Clouds 9000 ft
Windchill 11 °F
Dew Point 13 °F
Humidity 60%
Rainfall 0.02 in
Snow Depth Not available.
7:31 AM 4:34 PM
Waxing Crescent, 34% visible
METAR KWRL 051853Z AUTO 34017G25KT 10SM SCT090 M04/M11 A2985 RMK AO2 SLP147 T10391106

10-Day Weather Forecast

Almanac

Astronomy

Dec. 05, 2016 Rise Set
Actual Time
Civil Twilight
Nautical Twilight
Astronomical Twilight
Moon
Length of Visible Light
Length of Day
Tomorrow will be .
, % of the Moon is Illuminated

Today's Extremes

State Highs State Lows

Community

WunderPhotos

Upload Photos

1,955,852 photos uploaded!

WunderBlog® & News

Nearby

Air Quality

  Air Quality AQ Index Pollutant
Not available.

Snow Depth

Station Depth Elevation

Earthquake Activity

City Distance Mag. Time & Date
Minimum magnitude displayed is 2.5.

Coastal Water Temperatures

Place Temperature

Stations

Nearby Weather Stations

Station Location Temp. Windchill Dew Point Humidity Wind Precip. Elev Updated Type
                   

Watches & Warnings

Winter Weather Advisory
Issued: 11:59 AM MST Dec. 5, 2016 – National Weather Service

... Winter Weather Advisory now in effect until 6 PM MST this
evening...

* timing... light to occasionally moderate snow will continue
through the afternoon across the southern Bighorn Basin and
surrounding mountains... continuing until around 6 PM MST.

* Total snowfall... possible 6 to 10 inches in the Bighorn
Mountains... 4 to 8 inches around tensleep and Thermopolis.

* Wind and visibility... north to northwest wind 15 to 25 mph
with gusts 35 mph may cause areas of blowing and drifting
snow... with visibility limited to a quarter mile or less at
times.

* Impacts... roads may become slick... and snow packed with
limited visibility at times. People planning outdoor
activities should be prepared for adverse winter weather
conditions and take the proper precautions.

Precautionary/preparedness actions...

A Winter Weather Advisory for snow and blowing snow means periods
of snow will cause primarily travel difficulties. Be prepared for
snow covered and slick roads with limited visibilities. Slow
down... and allow extra time to reach your destination. Check the
latest Road conditions at wyoroad.Info or by dialing 5 1 1.